Airfield :
LOGIN :

Register | Disclaimer

   EN    FR    IT 

 










Legend :    VFR   Marginal VFR   IFR   Intensive IFR   Very Intensive IFR
Visi :
Ceiling :
>= 8 km
>= 3000ft
5 to 8 km
1000 to 3000 ft
1500m to 5 km
500 to 1000 ft
800 to 1500m
200 to 500 ft
< 800m
< 200 ft
Symbols :   Thunderstorms  Fog  Heavy snow  Heavy precipitations  Wind > 20 kt
SIGMETs :     Misc.  Thunderstorms  Icing  Turbulence  Mountain Waves  Volcanic Ashes







- Airport Elevation : 1247 ft
- IATA code : PRG


LKPR - Praha Ruzyne

CURRENT METAR :
  • 201430Z 27009KT 240V300 CAVOK 28/12 Q1011 NOSIG

EXPIRED METARs :
  • 201408Z 30009KT 260V320 CAVOK 28/13 Q1012 RMK REG QNH 1009
  • 201400Z 29010KT 240V330 CAVOK 26/12 Q1012 NOSIG
  • 201330Z 23007KT CAVOK 29/11 Q1012 NOSIG
  • 201300Z VRB05KT CAVOK 28/12 Q1012 NOSIG
  • 201230Z 24006KT 210V280 CAVOK 27/12 Q1012 NOSIG
  • 201200Z 25006KT 200V320 CAVOK 26/12 Q1013 NOSIG

TAF TAF LKPR
Valid from the 20 at 12:00 until the 21 at 18:00 UTC


201100Z 2012/2118 29006KT CAVOK
TEMPO 2012/2023 9000 SHRA SCT040TCU
PROB30
TEMPO 2012/2023 33010G22KT 4000 TSRA SCT030CB
BECMG 2023/2101 5000 BR NSC
PROB30
TEMPO 2101/2104 3000 BR BKN010
BECMG 2104/2106 CAVOK
TEMPO 2110/2118 9000 SHRA SCT036TCU
PROB30
TEMPO 2112/2118 5000 TSRA SCT030CB
No reported NOTAMs for that airfield.
1 SIGMET reported for the Praha FIR (LKAA) :
 
Squall lined thunderstorms
LKAA SIGMET 2 VALID 201445/201645 LKPW
LKAA PRAHA FIR SQL TS OBS APRX 60KM WID LINE BTN N5025 E01639 - N5015 E01624 - N4851 E01606 TOP FL400 MOV NE NC=



MET'MAP, your aeronautical weather chart ! - Copyright ORBIFLY December 2007 - Disclaimer

ORBIFLY MET'MAP TEAM :

Programming & Development : Alexandra Zaïnal
Concept & Development : Baudouin d'Aumeries
Co-Development & Prog : Marc-Olivier Méhu
Technical & hardware support : Manuel Goepfert

Contact : metmap@orbifly.com




SOURCES & CREDITS :

   NOAA